createdAt,value
2023-04-23T00:02:50.226Z,10.79
2023-04-23T00:08:19.554Z,10.73
2023-04-23T00:13:47.732Z,10.73
2023-04-23T00:19:15.975Z,10.74
2023-04-23T00:24:44.063Z,10.66
2023-04-23T00:30:12.009Z,10.54
2023-04-23T00:35:39.488Z,10.50
2023-04-23T00:41:07.653Z,10.44
2023-04-23T00:46:38.047Z,10.44
2023-04-23T00:52:06.309Z,10.44
2023-04-23T00:57:34.233Z,10.40
2023-04-23T01:03:01.776Z,10.34
2023-04-23T01:08:32.059Z,10.28
2023-04-23T01:13:59.765Z,10.31
2023-04-23T01:19:27.821Z,10.03
2023-04-23T01:24:56.115Z,9.93
2023-04-23T01:30:27.274Z,9.88
2023-04-23T01:35:55.800Z,9.94
2023-04-23T01:41:23.261Z,9.92
2023-04-23T01:46:51.130Z,9.86
2023-04-23T01:52:19.044Z,9.82
2023-04-23T01:57:47.385Z,9.86
2023-04-23T02:03:15.410Z,9.84
2023-04-23T02:08:43.604Z,9.61
2023-04-23T02:14:11.334Z,9.46
2023-04-23T02:19:38.764Z,9.27
2023-04-23T02:25:07.414Z,9.15
2023-04-23T02:31:03.989Z,9.11
2023-04-23T02:36:32.850Z,9.16
2023-04-23T02:42:00.925Z,9.04
2023-04-23T02:47:27.733Z,9.09
2023-04-23T02:52:54.581Z,9.17
2023-04-23T02:58:22.959Z,9.20
2023-04-23T03:03:53.274Z,9.16
2023-04-23T03:09:20.707Z,9.15
2023-04-23T03:14:47.964Z,9.10
2023-04-23T03:20:16.157Z,9.07
2023-04-23T03:25:44.378Z,9.10
2023-04-23T03:31:12.168Z,9.05
2023-04-23T03:36:39.743Z,9.09
2023-04-23T03:42:08.218Z,9.11
2023-04-23T03:47:37.133Z,9.28
2023-04-23T03:53:05.643Z,9.32
2023-04-23T03:59:07.770Z,9.44
2023-04-23T04:04:35.388Z,9.70
2023-04-23T04:10:03.447Z,9.83
2023-04-23T04:15:32.598Z,9.91
2023-04-23T04:21:00.140Z,10.08
2023-04-23T04:26:27.049Z,10.48
2023-04-23T04:31:55.000Z,13.12
2023-04-23T04:37:22.231Z,15.86
2023-04-23T04:42:48.885Z,17.98
2023-04-23T04:48:16.117Z,20.27
2023-04-23T04:53:43.734Z,21.59
2023-04-23T04:59:11.143Z,23.11
2023-04-23T05:04:38.330Z,24.34
2023-04-23T05:10:06.086Z,25.74
2023-04-23T05:15:33.285Z,26.30
2023-04-23T05:21:00.735Z,26.47
2023-04-23T05:26:28.485Z,27.22
2023-04-23T05:31:56.137Z,27.79
2023-04-23T05:37:24.574Z,28.84
2023-04-23T05:42:52.179Z,30.47
